Time;durP1;ratioP1;P1;durP2;ratioP2;P2;SDS_P1;SDS_P2;PMS_P1;PMS_P2;Temp;Humidity;BMP_temperature;BMP_pressure;BME280_temperature;BME280_humidity;BME280_pressure;Samples;Min_cycle;Max_cycle;Signal;HPM_P1;HPM_P2
2023/01/16 00:01:25;;;;;;;9.80;1.38;;;3.10;99.90;;;;;;5013720;28;20210;-81
2023/01/16 00:03:50;;;;;;;1.85;0.50;;;3.10;99.90;;;;;;5013702;28;20561;-79
2023/01/16 00:06:16;;;;;;;1.03;0.60;;;3.00;99.90;;;;;;5013512;28;20202;-80
2023/01/16 00:08:43;;;;;;;1.10;0.80;;;3.00;99.90;;;;;;5030048;28;21212;-80
2023/01/16 00:11:09;;;;;;;2.33;0.82;;;3.10;99.90;;;;;;5031423;28;20438;-80
2023/01/16 00:13:35;;;;;;;1.90;0.60;;;3.10;99.90;;;;;;5028742;28;20191;-81
2023/01/16 00:16:01;;;;;;;2.20;1.00;;;3.10;99.90;;;;;;5013011;28;20197;-80
2023/01/16 00:18:26;;;;;;;3.63;0.90;;;3.10;99.90;;;;;;5029655;28;20602;-80
2023/01/16 00:20:52;;;;;;;4.60;0.80;;;3.10;99.90;;;;;;5029525;28;20224;-80
2023/01/16 00:23:17;;;;;;;1.90;0.87;;;3.10;99.90;;;;;;5013145;28;20557;-81
2023/01/16 00:25:44;;;;;;;3.53;0.73;;;3.20;99.90;;;;;;5029093;28;20270;-80
2023/01/16 00:28:11;;;;;;;3.50;0.70;;;3.20;99.90;;;;;;5029061;28;20326;-82
2023/01/16 00:30:38;;;;;;;5.22;1.42;;;3.20;99.90;;;;;;5028917;28;20213;-82
2023/01/16 00:33:04;;;;;;;2.45;1.23;;;3.30;99.90;;;;;;5012408;28;20209;-83
2023/01/16 00:35:31;;;;;;;5.30;1.40;;;3.30;99.90;;;;;;5030348;28;20758;-83
2023/01/16 00:37:57;;;;;;;0.70;0.52;;;3.30;99.90;;;;;;5028858;28;20953;-83
2023/01/16 00:40:23;;;;;;;2.50;0.83;;;3.40;99.90;;;;;;5012548;28;20218;-82
2023/01/16 00:42:49;;;;;;;1.63;0.90;;;3.40;99.90;;;;;;5028656;28;20317;-82
2023/01/16 00:45:15;;;;;;;0.70;0.53;;;3.20;99.90;;;;;;5012284;28;20883;-83
2023/01/16 00:47:40;;;;;;;2.40;0.70;;;3.30;99.90;;;;;;5028528;28;20185;-81
2023/01/16 00:50:06;;;;;;;2.23;0.87;;;3.20;99.90;;;;;;5011780;28;20207;-81
2023/01/16 00:52:32;;;;;;;2.08;0.60;;;3.20;99.90;;;;;;5012296;28;20674;-80
2023/01/16 00:54:58;;;;;;;3.10;0.93;;;3.20;99.90;;;;;;5012015;28;20232;-80
2023/01/16 00:57:23;;;;;;;4.63;0.77;;;3.20;99.90;;;;;;5029799;28;20368;-80
2023/01/16 00:59:49;;;;;;;2.17;0.70;;;3.20;99.90;;;;;;5012144;28;20194;-80
2023/01/16 01:02:15;;;;;;;4.63;1.10;;;3.20;99.90;;;;;;5012015;28;20222;-80
2023/01/16 01:04:41;;;;;;;4.30;0.97;;;3.30;99.90;;;;;;5029723;28;20662;-80
2023/01/16 01:07:07;;;;;;;1.90;0.88;;;3.40;99.90;;;;;;5029696;28;20643;-80
2023/01/16 01:09:33;;;;;;;3.77;0.83;;;3.30;99.90;;;;;;5028378;28;20284;-80
2023/01/16 01:11:59;;;;;;;3.30;1.10;;;3.30;99.90;;;;;;5028180;28;20536;-81
2023/01/16 01:14:25;;;;;;;3.38;0.93;;;3.40;99.90;;;;;;5029632;28;20264;-81
2023/01/16 01:16:51;;;;;;;1.25;0.73;;;3.40;99.90;;;;;;5028673;28;20185;-80
2023/01/16 01:19:16;;;;;;;3.37;0.73;;;3.30;99.90;;;;;;5031372;28;20712;-81
2023/01/16 01:21:42;;;;;;;1.83;0.90;;;3.50;99.90;;;;;;5028655;28;20209;-81
2023/01/16 01:24:08;;;;;;;2.87;0.73;;;3.30;99.90;;;;;;5028669;28;20188;-82
2023/01/16 01:26:34;;;;;;;0.93;0.73;;;3.30;99.90;;;;;;5011586;28;20185;-81
2023/01/16 01:29:00;;;;;;;2.38;0.68;;;3.30;99.90;;;;;;5028496;28;20191;-81
2023/01/16 01:31:26;;;;;;;3.83;1.20;;;3.30;99.90;;;;;;5028148;28;20205;-81
2023/01/16 01:33:51;;;;;;;6.73;0.90;;;3.30;99.90;;;;;;5028743;28;20191;-80
2023/01/16 01:36:18;;;;;;;2.15;1.13;;;3.30;99.90;;;;;;5028162;28;20647;-81
2023/01/16 01:38:46;;;;;;;1.17;0.70;;;3.20;99.90;;;;;;5011380;28;20269;-81
2023/01/16 01:41:13;;;;;;;3.70;0.85;;;3.20;99.90;;;;;;5011603;28;20824;-81
2023/01/16 01:43:48;;;;;;;2.80;0.63;;;3.20;99.90;;;;;;5028045;28;20185;-80
2023/01/16 01:46:29;;;;;;;3.08;0.80;;;3.20;99.90;;;;;;5027948;28;20665;-81
2023/01/16 01:49:00;;;;;;;3.85;0.88;;;3.20;99.90;;;;;;5011637;28;20204;-80
2023/01/16 01:51:33;;;;;;;1.15;0.50;;;3.20;99.90;;;;;;5029225;28;20194;-80
2023/01/16 01:54:07;;;;;;;1.35;0.80;;;3.20;99.90;;;;;;5011298;28;20378;-80
2023/01/16 01:56:39;;;;;;;4.15;0.85;;;3.20;99.90;;;;;;5029323;28;20179;-78
2023/01/16 01:59:10;;;;;;;1.05;0.63;;;3.20;99.90;;;;;;5027848;28;20771;-80
2023/01/16 02:01:36;;;;;;;2.00;0.52;;;3.30;99.90;;;;;;5027724;28;20572;-81
2023/01/16 02:04:05;;;;;;;2.03;0.60;;;3.30;99.90;;;;;;5028102;28;20670;-80
2023/01/16 02:06:40;;;;;;;2.05;0.50;;;3.40;99.90;;;;;;5027722;28;20192;-81
2023/01/16 02:09:06;;;;;;;3.35;0.52;;;3.30;99.90;;;;;;5029201;28;20169;-81
2023/01/16 02:11:44;;;;;;;1.23;0.60;;;3.30;99.90;;;;;;5011413;28;20236;-80
2023/01/16 02:14:14;;;;;;;4.10;1.00;;;3.30;99.90;;;;;;5027321;28;20346;-80
2023/01/16 02:19:50;;;;;;;1.40;0.70;;;3.20;99.90;;;;;;5029078;28;20704;-81
2023/01/16 02:22:41;;;;;;;1.40;0.65;;;3.20;99.90;;;;;;5028984;28;20196;-81
2023/01/16 02:25:27;;;;;;;1.45;0.90;;;3.20;99.90;;;;;;5029040;28;20207;-80
2023/01/16 02:28:15;;;;;;;1.27;0.50;;;3.20;99.90;;;;;;5028670;28;20189;-80
2023/01/16 02:31:17;;;;;;;0.85;0.55;;;3.20;99.90;;;;;;5028806;28;20585;-81
2023/01/16 02:34:16;;;;;;;1.77;0.63;;;3.30;99.90;;;;;;5027715;28;20239;-81
2023/01/16 02:37:03;;;;;;;2.45;0.65;;;3.30;99.90;;;;;;5029056;28;20525;-82
2023/01/16 02:39:38;;;;;;;0.68;0.50;;;3.30;99.90;;;;;;5030798;28;20267;-81
2023/01/16 02:42:32;;;;;;;5.53;0.40;;;3.40;99.90;;;;;;5030804;28;20201;-82
2023/01/16 02:45:21;;;;;;;2.10;0.70;;;3.30;99.90;;;;;;5030729;28;20192;-81
2023/01/16 02:48:01;;;;;;;5.28;0.80;;;3.30;99.90;;;;;;5031270;28;20167;-82
2023/01/16 02:50:33;;;;;;;3.63;0.55;;;3.30;99.90;;;;;;5031708;28;20219;-81
2023/01/16 02:53:19;;;;;;;5.72;0.50;;;3.30;99.90;;;;;;5031514;28;20243;-79
2023/01/16 02:55:56;;;;;;;1.80;0.60;;;3.30;99.90;;;;;;5030822;28;20557;-79
2023/01/16 02:58:23;;;;;;;4.60;0.60;;;3.30;99.90;;;;;;5030566;28;20170;-79
2023/01/16 03:00:55;;;;;;;1.83;0.70;;;3.30;99.90;;;;;;5032023;28;20272;-79
2023/01/16 03:04:03;;;;;;;6.40;0.75;;;3.30;99.90;;;;;;5030635;28;20258;-79
2023/01/16 03:06:44;;;;;;;0.85;0.77;;;3.30;99.90;;;;;;5032141;28;20245;-79
2023/01/16 03:09:42;;;;;;;2.67;0.60;;;3.30;99.90;;;;;;5032039;28;20166;-78
2023/01/16 03:12:26;;;;;;;1.08;0.60;;;3.30;99.90;;;;;;5031871;28;20205;-78
2023/01/16 03:15:18;;;;;;;0.77;0.45;;;3.30;99.90;;;;;;5031601;28;20197;-78
2023/01/16 03:18:08;;;;;;;1.77;0.80;;;3.30;99.90;;;;;;5031643;28;20718;-78
2023/01/16 03:20:47;;;;;;;1.60;0.60;;;3.30;99.90;;;;;;5030291;28;20209;-79
2023/01/16 03:23:22;;;;;;;2.03;0.90;;;3.20;99.90;;;;;;5033052;28;20200;-79
2023/01/16 03:25:54;;;;;;;5.22;0.90;;;3.30;99.90;;;;;;5035653;28;20190;-79
2023/01/16 03:28:40;;;;;;;2.95;0.50;;;3.20;99.90;;;;;;5047477;28;20201;-79
2023/01/16 03:31:15;;;;;;;3.70;0.70;;;3.20;99.90;;;;;;5049497;28;20231;-80
2023/01/16 03:33:44;;;;;;;1.40;0.60;;;3.30;99.90;;;;;;5048706;28;20197;-79
2023/01/16 03:36:22;;;;;;;2.72;0.80;;;3.20;99.90;;;;;;5048450;28;20178;-79
2023/01/16 03:38:50;;;;;;;2.58;0.60;;;3.30;99.90;;;;;;5033761;28;20580;-78
2023/01/16 03:41:20;;;;;;;2.30;0.60;;;3.40;99.90;;;;;;5032012;28;20216;-79
2023/01/16 03:43:50;;;;;;;2.28;1.17;;;3.40;99.90;;;;;;5033610;28;20177;-79
2023/01/16 03:46:20;;;;;;;1.98;0.60;;;3.40;99.90;;;;;;5033560;28;20185;-79
2023/01/16 03:49:27;;;;;;;3.05;0.80;;;3.40;99.90;;;;;;5034871;28;20267;-81
2023/01/16 03:51:58;;;;;;;3.65;0.80;;;3.40;99.90;;;;;;4957867;28;20198;-81
2023/01/16 03:54:48;;;;;;;4.00;0.70;;;3.40;99.90;;;;;;5019897;28;20243;-81
2023/01/16 03:57:29;;;;;;;1.48;0.50;;;3.40;99.90;;;;;;5033368;28;20836;-84
2023/01/16 03:59:55;;;;;;;1.08;0.70;;;3.40;99.90;;;;;;5032636;28;20231;-84
2023/01/16 04:02:28;;;;;;;1.57;0.60;;;3.40;99.90;;;;;;5032765;28;20189;-83
2023/01/16 04:05:07;;;;;;;2.70;0.60;;;3.50;99.90;;;;;;5032363;28;20176;-84
2023/01/16 04:07:38;;;;;;;4.30;0.50;;;3.50;99.90;;;;;;5031727;28;20201;-82
2023/01/16 04:10:09;;;;;;;1.33;0.50;;;3.50;99.90;;;;;;5015879;28;20188;-83
2023/01/16 04:12:45;;;;;;;1.00;0.52;;;3.50;99.90;;;;;;5031950;28;20233;-81
2023/01/16 04:15:11;;;;;;;2.35;0.50;;;3.60;99.90;;;;;;5033241;28;20201;-82
2023/01/16 04:17:39;;;;;;;3.50;0.70;;;3.60;99.90;;;;;;5033308;28;20603;-83
2023/01/16 04:20:06;;;;;;;4.22;0.70;;;3.60;99.90;;;;;;5032920;28;20993;-82
2023/01/16 04:22:32;;;;;;;3.08;0.60;;;3.60;99.90;;;;;;5031519;28;20277;-84
2023/01/16 04:44:19;;;;;;;1.25;0.85;;;3.60;99.90;;;;;;5052540;28;20225;-75
2023/01/16 04:46:44;;;;;;;1.13;0.70;;;3.50;99.90;;;;;;5034935;28;20239;-75
2023/01/16 04:49:10;;;;;;;2.80;0.50;;;3.50;99.90;;;;;;5051393;28;20667;-74
2023/01/16 04:54:05;;;;;;;2.15;0.60;;;3.40;99.90;;;;;;5050594;28;20216;-74
2023/01/16 04:56:31;;;;;;;0.70;0.50;;;3.30;99.90;;;;;;5051736;28;20188;-74
2023/01/16 04:58:57;;;;;;;0.70;0.50;;;3.40;99.90;;;;;;5051493;28;20234;-74
2023/01/16 05:03:50;;;;;;;1.60;0.60;;;3.40;99.90;;;;;;5050401;28;20225;-75
2023/01/16 05:06:17;;;;;;;6.07;0.60;;;3.40;99.90;;;;;;5051808;28;20180;-74
2023/01/16 05:08:42;;;;;;;2.75;0.90;;;3.40;99.90;;;;;;5051862;28;20193;-74
2023/01/16 05:11:08;;;;;;;1.10;0.97;;;3.50;99.90;;;;;;5059546;23;20228;-74
2023/01/16 05:13:34;;;;;;;3.10;0.83;;;3.50;99.90;;;;;;5049781;28;20596;-74
2023/01/16 05:16:00;;;;;;;1.53;0.70;;;3.40;99.90;;;;;;5050794;28;20209;-74
2023/01/16 05:18:26;;;;;;;0.80;0.50;;;3.40;99.90;;;;;;5050941;28;20181;-74
2023/01/16 05:20:52;;;;;;;1.23;0.70;;;3.20;99.90;;;;;;5059578;22;20187;-74
2023/01/16 05:23:17;;;;;;;1.90;0.80;;;3.20;99.90;;;;;;5050928;28;20614;-74
2023/01/16 05:25:43;;;;;;;1.53;0.70;;;3.10;99.90;;;;;;5050962;28;20203;-74
2023/01/16 05:28:09;;;;;;;1.17;0.70;;;3.10;99.90;;;;;;5050868;28;20419;-74
2023/01/16 05:33:04;;;;;;;1.95;1.20;;;3.10;99.90;;;;;;5048736;28;20219;-74
2023/01/16 05:35:30;;;;;;;2.78;0.88;;;3.10;99.90;;;;;;5051255;28;20207;-74
2023/01/16 05:37:55;;;;;;;3.10;0.90;;;3.00;99.90;;;;;;5016983;28;20196;-74
2023/01/16 05:42:49;;;;;;;1.60;0.60;;;3.00;99.90;;;;;;5049946;28;20274;-74
2023/01/16 05:45:14;;;;;;;1.57;1.00;;;2.90;99.90;;;;;;5051948;28;20177;-75
2023/01/16 05:47:40;;;;;;;3.13;1.00;;;2.90;99.90;;;;;;5052448;28;20187;-74
2023/01/16 05:52:33;;;;;;;2.30;0.90;;;2.90;99.90;;;;;;5068664;28;20220;-75
2023/01/16 05:54:59;;;;;;;6.47;1.30;;;2.90;99.90;;;;;;5070868;28;20223;-74
2023/01/16 05:57:25;;;;;;;2.03;1.10;;;2.90;99.90;;;;;;5069436;28;20180;-75
2023/01/16 06:02:24;;;;;;;3.60;1.30;;;2.90;99.90;;;;;;5051176;28;20212;-75
2023/01/16 06:04:51;;;;;;;7.13;0.80;;;2.90;99.90;;;;;;5035135;28;20209;-75
2023/01/16 06:07:17;;;;;;;1.48;0.80;;;2.90;99.90;;;;;;5048544;28;20178;-74
2023/01/16 06:09:42;;;;;;;2.00;0.60;;;2.90;99.90;;;;;;5049676;28;20208;-74
2023/01/16 06:14:36;;;;;;;3.40;1.27;;;2.90;99.90;;;;;;5070293;28;20309;-74
2023/01/16 06:17:02;;;;;;;6.53;1.40;;;2.90;99.90;;;;;;5071781;28;20976;-74
2023/01/16 06:19:27;;;;;;;0.73;0.70;;;2.80;99.90;;;;;;5072867;28;20246;-75
2023/01/16 06:21:53;;;;;;;1.23;0.70;;;2.80;99.90;;;;;;5073846;22;20233;-74
2023/01/16 06:24:18;;;;;;;1.97;1.47;;;2.80;99.90;;;;;;5052522;28;20658;-74
2023/01/16 06:26:44;;;;;;;2.30;1.07;;;2.80;99.90;;;;;;5052269;28;20192;-74
2023/01/16 06:29:10;;;;;;;2.20;0.80;;;2.80;99.90;;;;;;5053628;28;20177;-74
2023/01/16 06:34:03;;;;;;;2.10;1.10;;;2.80;99.90;;;;;;5053228;28;20219;-74
2023/01/16 06:36:29;;;;;;;1.83;1.33;;;2.70;99.90;;;;;;5053506;28;20189;-75
2023/01/16 06:38:54;;;;;;;2.10;1.70;;;2.70;99.90;;;;;;5053503;28;20180;-74
2023/01/16 06:43:48;;;;;;;1.63;0.93;;;2.50;99.90;;;;;;5051691;28;20220;-74
2023/01/16 06:46:14;;;;;;;4.67;1.63;;;2.50;99.90;;;;;;5053980;28;20180;-75
2023/01/16 06:48:41;;;;;;;5.23;1.10;;;2.50;99.90;;;;;;5054092;28;20271;-75
2023/01/16 06:51:07;;;;;;;1.13;0.63;;;2.50;99.90;;;;;;5047003;23;20221;-74
2023/01/16 06:53:33;;;;;;;3.08;0.82;;;2.50;99.90;;;;;;5053682;28;20192;-74
2023/01/16 06:55:58;;;;;;;1.53;0.70;;;2.50;99.90;;;;;;5053388;28;20212;-74
2023/01/16 06:58:24;;;;;;;1.23;0.80;;;2.40;99.90;;;;;;5035748;28;20234;-74
2023/01/16 07:00:50;;;;;;;3.17;0.70;;;2.40;99.90;;;;;;5044755;23;20664;-74
2023/01/16 07:03:16;;;;;;;3.05;0.70;;;2.40;99.90;;;;;;5050932;28;20199;-74
2023/01/16 07:05:44;;;;;;;0.80;0.73;;;2.50;99.90;;;;;;5052770;28;20212;-75
2023/01/16 07:08:09;;;;;;;1.10;0.60;;;2.50;99.90;;;;;;5051836;28;20721;-74
2023/01/16 07:13:03;;;;;;;5.43;0.88;;;2.60;99.90;;;;;;5070260;28;20788;-74
2023/01/16 07:23:33;;;;;;;2.80;0.90;;;2.70;99.90;;;;;;5071385;28;20207;-74
2023/01/16 07:26:02;;;;;;;2.13;0.90;;;2.70;99.90;;;;;;5075315;28;20235;-74
2023/01/16 07:28:28;;;;;;;1.15;0.70;;;2.70;99.90;;;;;;5072348;28;20184;-75
2023/01/16 07:30:55;;;;;;;0.95;0.80;;;2.70;99.90;;;;;;5072105;22;20224;-74
2023/01/16 07:33:20;;;;;;;5.82;0.77;;;2.70;99.90;;;;;;5034164;28;20200;-74
2023/01/16 07:35:46;;;;;;;1.17;0.57;;;2.70;99.90;;;;;;5051713;28;20222;-74
2023/01/16 07:38:12;;;;;;;1.90;0.57;;;2.80;99.90;;;;;;5050533;28;20362;-74
2023/01/16 07:43:05;;;;;;;0.85;0.60;;;3.00;99.90;;;;;;5050374;28;20223;-74
2023/01/16 07:45:31;;;;;;;0.70;0.40;;;3.00;99.90;;;;;;5050565;28;20222;-74
2023/01/16 07:47:56;;;;;;;2.90;0.47;;;3.10;99.90;;;;;;5050544;28;20428;-74
2023/01/16 07:52:50;;;;;;;3.15;0.93;;;3.20;99.90;;;;;;5050147;28;20244;-74
2023/01/16 07:55:16;;;;;;;1.00;0.63;;;3.20;99.90;;;;;;5051773;28;20243;-74
2023/01/16 07:57:42;;;;;;;0.70;0.50;;;3.20;99.90;;;;;;5033707;28;20185;-74
2023/01/16 08:02:36;;;;;;;0.93;0.50;;;3.20;99.90;;;;;;5051119;28;20240;-74
2023/01/16 08:05:02;;;;;;;0.70;0.50;;;3.30;99.90;;;;;;5050040;28;20239;-74
2023/01/16 08:07:28;;;;;;;2.55;0.65;;;3.30;99.90;;;;;;5050261;28;20271;-74
2023/01/16 08:14:57;;;;;;;0.80;0.63;;;3.20;99.90;;;;;;5068656;28;20281;-73
2023/01/16 08:17:22;;;;;;;0.80;0.50;;;3.20;99.60;;;;;;5070293;28;20189;-73
2023/01/16 08:19:48;;;;;;;0.70;0.60;;;3.20;99.60;;;;;;5053339;28;20201;-73
2023/01/16 08:24:41;;;;;;;1.30;0.70;;;3.30;99.10;;;;;;5069479;28;20282;-73
2023/01/16 08:27:07;;;;;;;1.30;0.70;;;3.30;99.10;;;;;;5071208;28;20185;-73
2023/01/16 08:29:32;;;;;;;0.93;0.70;;;3.30;99.30;;;;;;5053350;28;20660;-72
2023/01/16 08:34:27;;;;;;;4.75;0.70;;;3.10;99.50;;;;;;5067856;28;20228;-74
2023/01/16 08:36:52;;;;;;;0.70;0.57;;;3.10;99.70;;;;;;5069967;28;20184;-74
2023/01/16 08:39:18;;;;;;;1.37;0.50;;;3.20;98.70;;;;;;5071438;28;20198;-75
2023/01/16 08:52:29;;;;;;;0.68;0.47;;;3.30;97.60;;;;;;5011062;28;20584;-74
2023/01/16 08:54:58;;;;;;;0.80;0.43;;;3.40;97.60;;;;;;5012260;28;20277;-74
2023/01/16 08:57:25;;;;;;;0.80;0.40;;;3.30;97.40;;;;;;5011689;28;20191;-73
2023/01/16 08:59:50;;;;;;;1.05;0.50;;;3.30;97.20;;;;;;5017429;28;20195;-75
2023/01/16 09:02:16;;;;;;;0.70;0.50;;;3.30;97.60;;;;;;5039673;22;20182;-74
2023/01/16 09:04:44;;;;;;;1.20;0.40;;;3.40;98.10;;;;;;5049954;28;20232;-75
2023/01/16 09:07:12;;;;;;;0.80;0.60;;;3.30;96.50;;;;;;5049877;28;20180;-74
2023/01/16 09:09:37;;;;;;;0.88;0.50;;;3.40;96.20;;;;;;5051143;28;20209;-75
2023/01/16 09:14:31;;;;;;;2.55;0.50;;;3.50;95.30;;;;;;5048887;28;20233;-74
2023/01/16 09:16:56;;;;;;;0.80;0.60;;;3.50;95.00;;;;;;5050400;28;20208;-74
2023/01/16 09:19:22;;;;;;;1.37;0.90;;;3.60;95.20;;;;;;5050578;28;20204;-74
2023/01/16 09:21:47;;;;;;;2.70;0.80;;;3.70;94.90;;;;;;5056997;23;20196;-74
2023/01/16 09:24:13;;;;;;;0.70;0.40;;;3.70;94.10;;;;;;5029908;28;20256;-74
2023/01/16 09:26:38;;;;;;;0.90;0.53;;;3.70;93.80;;;;;;5030882;28;20189;-74
2023/01/16 09:29:04;;;;;;;1.87;0.60;;;3.80;93.00;;;;;;5030945;28;20182;-74
2023/01/16 09:33:58;;;;;;;1.80;0.60;;;3.90;93.40;;;;;;5068727;28;20233;-74
2023/01/16 09:36:23;;;;;;;0.90;0.60;;;3.90;93.30;;;;;;5070154;28;20188;-74
2023/01/16 09:38:49;;;;;;;1.20;0.40;;;3.90;94.00;;;;;;5070424;28;20181;-74
2023/01/16 09:44:08;;;;;;;1.60;0.60;;;3.90;92.50;;;;;;5028938;28;20200;-74
2023/01/16 09:46:49;;;;;;;4.93;0.60;;;3.90;92.20;;;;;;5049917;28;20249;-74
2023/01/16 09:49:33;;;;;;;3.00;2.63;;;4.00;91.90;;;;;;5048779;28;20211;-74
2023/01/16 10:02:55;;;;;;;1.60;0.60;;;4.40;90.90;;;;;;5068914;28;20469;-74
2023/01/16 10:05:28;;;;;;;2.30;0.40;;;4.40;90.90;;;;;;5071155;28;20181;-74
2023/01/16 10:08:18;;;;;;;1.05;0.50;;;4.40;90.00;;;;;;5069836;28;20182;-74
2023/01/16 10:13:29;;;;;;;0.95;0.50;;;4.40;89.90;;;;;;5048491;28;20226;-74
2023/01/16 10:16:23;;;;;;;0.70;0.63;;;4.50;90.10;;;;;;5049998;28;20670;-74
2023/01/16 10:19:13;;;;;;;1.83;0.70;;;4.60;88.20;;;;;;5051381;28;20206;-74
2023/01/16 10:21:59;;;;;;;0.70;0.50;;;4.50;88.10;;;;;;5053011;22;20543;-74
2023/01/16 10:24:30;;;;;;;0.90;0.50;;;4.60;87.30;;;;;;5050739;28;20178;-74
2023/01/16 10:26:58;;;;;;;1.83;1.05;;;4.70;85.60;;;;;;5049273;28;20447;-74
2023/01/16 10:29:31;;;;;;;5.75;2.80;;;4.80;84.80;;;;;;5048913;28;20221;-75
2023/01/16 10:34:31;;;;;;;3.13;1.67;;;4.80;84.00;;;;;;5050997;28;20218;-74
2023/01/16 10:36:59;;;;;;;0.82;0.70;;;4.80;83.80;;;;;;5049714;28;20773;-74
2023/01/16 10:39:36;;;;;;;2.90;2.10;;;4.80;83.30;;;;;;5049469;28;20213;-74
2023/01/16 10:52:34;;;;;;;0.90;0.80;;;4.80;84.30;;;;;;5048945;28;20215;-74
2023/01/16 10:55:01;;;;;;;3.27;0.70;;;4.90;83.20;;;;;;5050559;28;20211;-74
2023/01/16 10:57:27;;;;;;;1.90;0.90;;;4.90;82.70;;;;;;5049241;28;20507;-74
2023/01/16 11:00:25;;;;;;;0.80;0.60;;;5.00;83.00;;;;;;5052517;28;20298;-74
2023/01/16 11:05:29;;;;;;;0.80;0.50;;;5.10;83.50;;;;;;5052762;28;20468;-74
2023/01/16 11:08:01;;;;;;;0.80;0.50;;;5.10;84.90;;;;;;5055464;28;20190;-73
2023/01/16 11:18:43;;;;;;;0.60;0.37;;;5.30;89.50;;;;;;5072733;28;20269;-73
2023/01/16 11:21:26;;;;;;;0.70;0.40;;;5.30;89.40;;;;;;5077206;22;20583;-73
2023/01/16 11:24:10;;;;;;;0.87;0.50;;;5.30;90.30;;;;;;5051447;28;20187;-74
2023/01/16 11:26:36;;;;;;;0.60;0.40;;;5.20;92.50;;;;;;5051519;28;20407;-73
2023/01/16 11:29:02;;;;;;;0.70;0.50;;;5.00;94.60;;;;;;5051403;28;20429;-74
2023/01/16 11:34:01;;;;;;;1.15;0.73;;;4.80;99.30;;;;;;5052552;28;20480;-74
2023/01/16 11:36:31;;;;;;;0.60;0.40;;;4.70;99.90;;;;;;5053467;28;20210;-74
2023/01/16 11:38:58;;;;;;;0.70;0.40;;;4.50;99.90;;;;;;5034945;28;20273;-74
2023/01/16 11:47:17;;;;;;;0.70;0.40;;;4.50;99.90;;;;;;5055101;28;20424;-73
2023/01/16 11:52:37;;;;;;;0.60;0.33;;;4.50;99.90;;;;;;5051518;28;20227;-73
2023/01/16 11:55:05;;;;;;;0.60;0.37;;;4.40;99.90;;;;;;5052030;28;20467;-74
2023/01/16 11:57:37;;;;;;;0.95;0.43;;;4.40;99.90;;;;;;5050767;28;20187;-75
2023/01/16 12:08:04;;;;;;;0.65;0.35;;;4.50;99.90;;;;;;5071657;28;20847;-74
2023/01/16 12:15:54;;;;;;;0.60;0.30;;;4.70;99.90;;;;;;5050883;28;20272;-75
2023/01/16 12:18:43;;;;;;;0.63;0.50;;;4.70;99.90;;;;;;5052064;28;20594;-74
2023/01/16 12:23:55;;;;;;;0.70;0.33;;;4.70;99.90;;;;;;5049922;28;20595;-73
2023/01/16 12:26:28;;;;;;;0.60;0.40;;;4.70;99.90;;;;;;5051874;28;20417;-74
2023/01/16 12:29:16;;;;;;;2.35;0.43;;;4.70;99.90;;;;;;5031880;28;20289;-73
2023/01/16 12:34:28;;;;;;;0.60;0.40;;;4.80;99.90;;;;;;5069889;28;20697;-75
2023/01/16 12:37:17;;;;;;;1.17;0.43;;;4.70;99.90;;;;;;5069135;28;21093;-74
2023/01/16 12:39:55;;;;;;;0.63;0.50;;;4.80;99.90;;;;;;5067917;28;20446;-74
2023/01/16 12:45:28;;;;;;;0.60;0.40;;;4.70;99.90;;;;;;5068659;28;20254;-74
2023/01/16 12:48:04;;;;;;;0.70;0.40;;;4.60;99.90;;;;;;5069162;28;20193;-74
2023/01/16 12:50:46;;;;;;;0.60;0.40;;;4.70;99.90;;;;;;5068613;28;20261;-74
2023/01/16 12:53:24;;;;;;;1.35;0.60;;;4.70;99.90;;;;;;5069055;28;20186;-74
2023/01/16 12:56:13;;;;;;;0.65;0.50;;;4.70;99.90;;;;;;5069053;28;20236;-74
2023/01/16 12:58:44;;;;;;;0.90;0.70;;;4.80;99.90;;;;;;5069254;28;21016;-74
2023/01/16 13:01:20;;;;;;;0.90;0.77;;;4.80;99.90;;;;;;5068966;28;20434;-74
2023/01/16 13:03:54;;;;;;;0.70;0.40;;;4.80;99.90;;;;;;5067609;28;20197;-75
2023/01/16 13:06:46;;;;;;;1.27;0.50;;;4.70;99.90;;;;;;5068767;28;20521;-74
2023/01/16 13:09:25;;;;;;;1.23;0.77;;;4.70;99.90;;;;;;5068737;28;20223;-74
2023/01/16 13:15:09;;;;;;;0.70;0.50;;;4.70;99.90;;;;;;5067946;28;20231;-73
2023/01/16 13:17:56;;;;;;;0.70;0.43;;;4.70;99.90;;;;;;5066262;28;20952;-73
2023/01/16 13:20:23;;;;;;;1.00;0.40;;;4.70;99.90;;;;;;5066242;28;20593;-73
2023/01/16 13:22:54;;;;;;;0.60;0.50;;;4.70;99.90;;;;;;5067876;28;20939;-74
2023/01/16 13:25:28;;;;;;;0.65;0.43;;;4.80;99.90;;;;;;5068144;28;20930;-73
2023/01/16 13:28:00;;;;;;;0.80;0.60;;;4.80;99.90;;;;;;5068097;28;20198;-74
2023/01/16 13:30:26;;;;;;;0.70;0.60;;;4.80;99.90;;;;;;5066694;28;20509;-74
2023/01/16 13:32:59;;;;;;;1.00;0.67;;;4.90;99.90;;;;;;5068083;28;20535;-73
2023/01/16 13:35:56;;;;;;;0.70;0.40;;;4.90;99.90;;;;;;5068237;28;20461;-74
2023/01/16 13:38:32;;;;;;;0.70;0.50;;;4.90;99.90;;;;;;5068169;28;20407;-74
2023/01/16 13:41:14;;;;;;;0.70;0.40;;;5.00;99.90;;;;;;5065985;28;20236;-74
2023/01/16 13:47:06;;;;;;;0.60;0.40;;;5.40;99.90;;;;;;5038811;28;20659;-73
2023/01/16 13:49:32;;;;;;;0.60;0.40;;;5.90;99.90;;;;;;5066621;28;20207;-73
2023/01/16 13:52:01;;;;;;;0.80;0.50;;;6.00;99.90;;;;;;5066294;28;20189;-73
2023/01/16 13:54:41;;;;;;;0.70;0.50;;;6.20;99.90;;;;;;5067904;28;20181;-73
2023/01/16 13:57:20;;;;;;;0.70;0.50;;;6.30;99.90;;;;;;5066156;28;20623;-74
2023/01/16 14:00:11;;;;;;;1.37;0.50;;;6.30;99.90;;;;;;5065998;28;20205;-72
2023/01/16 14:02:38;;;;;;;0.60;0.40;;;5.80;99.90;;;;;;5062781;28;20442;-73
2023/01/16 14:05:06;;;;;;;2.55;0.47;;;5.50;99.90;;;;;;5066246;28;20185;-73
2023/01/16 14:10:58;;;;;;;0.80;0.40;;;5.20;99.90;;;;;;5051490;28;20214;-73
2023/01/16 14:13:32;;;;;;;0.70;0.40;;;5.10;99.90;;;;;;5067402;28;20224;-73
2023/01/16 14:16:30;;;;;;;1.38;0.55;;;5.00;99.90;;;;;;5067312;28;20467;-73
2023/01/16 14:18:55;;;;;;;0.80;0.67;;;5.00;99.90;;;;;;5066230;28;20228;-73
2023/01/16 14:21:36;;;;;;;0.70;0.50;;;5.00;99.90;;;;;;5067383;28;20464;-73
2023/01/16 14:24:11;;;;;;;1.83;0.50;;;5.20;99.90;;;;;;5065331;28;20182;-73
2023/01/16 14:26:43;;;;;;;0.70;0.60;;;5.10;99.90;;;;;;5067286;28;20422;-73
2023/01/16 14:29:12;;;;;;;1.15;0.60;;;5.10;99.90;;;;;;5065896;28;20423;-73
2023/01/16 14:31:39;;;;;;;0.90;0.77;;;5.00;99.90;;;;;;5067144;28;20182;-74
2023/01/16 14:34:05;;;;;;;1.13;0.60;;;4.80;99.90;;;;;;5068212;28;20264;-74
2023/01/16 14:36:34;;;;;;;5.50;2.30;;;4.80;99.90;;;;;;5070927;28;20301;-73
2023/01/16 14:39:00;;;;;;;1.10;0.77;;;4.80;99.90;;;;;;5052859;28;21161;-74
2023/01/16 14:56:40;;;;;;;1.25;0.57;;;4.60;99.90;;;;;;5070386;28;20300;-73
2023/01/16 14:59:20;;;;;;;0.90;0.60;;;4.60;99.90;;;;;;5069702;28;20277;-73
2023/01/16 15:04:52;;;;;;;0.80;0.50;;;4.60;99.90;;;;;;5070486;28;20204;-74
2023/01/16 15:07:24;;;;;;;2.35;0.80;;;4.60;99.90;;;;;;5068882;28;20692;-74
2023/01/16 15:09:50;;;;;;;0.95;0.50;;;4.60;99.90;;;;;;5068821;28;20221;-74
2023/01/16 15:12:17;;;;;;;2.55;0.70;;;4.40;99.90;;;;;;5070214;28;20216;-73
2023/01/16 15:14:57;;;;;;;1.33;0.90;;;4.40;99.90;;;;;;5068802;28;20236;-74
2023/01/16 15:23:31;;;;;;;1.17;0.60;;;4.30;99.90;;;;;;5070796;28;20183;-74
2023/01/16 15:26:27;;;;;;;0.70;0.57;;;4.20;99.90;;;;;;5069957;28;20197;-74
2023/01/16 15:29:02;;;;;;;0.80;0.70;;;4.30;99.90;;;;;;5070245;28;20705;-73
2023/01/16 15:31:32;;;;;;;1.83;0.80;;;4.30;99.90;;;;;;5070243;28;20683;-73
2023/01/16 15:34:13;;;;;;;3.92;1.80;;;4.30;99.90;;;;;;5068945;28;20709;-73
2023/01/16 15:36:44;;;;;;;11.75;3.58;;;4.30;99.90;;;;;;5068902;28;20197;-74
2023/01/16 15:39:19;;;;;;;0.88;0.85;;;4.40;99.90;;;;;;5069389;28;20273;-74
2023/01/16 15:47:20;;;;;;;1.75;0.60;;;4.40;99.90;;;;;;5070153;28;20713;-73
2023/01/16 15:50:19;;;;;;;0.90;0.60;;;4.50;99.90;;;;;;5070274;28;20200;-73
2023/01/16 15:52:45;;;;;;;0.80;0.55;;;4.50;99.90;;;;;;5070076;28;20192;-75
2023/01/16 15:55:37;;;;;;;0.80;0.67;;;4.30;99.90;;;;;;5069680;28;20217;-74
2023/01/16 15:58:07;;;;;;;1.58;0.50;;;4.30;99.90;;;;;;5070152;28;20179;-73
2023/01/16 16:00:37;;;;;;;1.63;0.90;;;4.20;99.90;;;;;;5068712;28;20274;-75
2023/01/16 16:03:21;;;;;;;0.75;0.60;;;4.00;99.90;;;;;;5070004;28;20419;-75
2023/01/16 16:05:56;;;;;;;0.70;0.40;;;3.70;99.90;;;;;;5069688;28;20196;-73
2023/01/16 16:08:26;;;;;;;0.90;0.70;;;3.40;99.90;;;;;;5068191;28;20184;-74
2023/01/16 16:13:39;;;;;;;0.70;0.50;;;3.30;99.90;;;;;;5069442;28;20728;-74
2023/01/16 16:19:00;;;;;;;0.98;0.70;;;3.50;99.90;;;;;;5068925;28;20191;-74
2023/01/16 16:21:30;;;;;;;6.80;0.80;;;3.40;99.90;;;;;;5068651;28;20678;-74
2023/01/16 16:24:14;;;;;;;0.93;0.80;;;3.40;99.90;;;;;;5068637;28;20703;-75
2023/01/16 16:26:42;;;;;;;0.80;0.80;;;3.40;99.90;;;;;;5050266;28;20198;-73
2023/01/16 16:29:21;;;;;;;1.33;1.02;;;3.40;99.90;;;;;;5068153;28;20190;-73
2023/01/16 16:31:48;;;;;;;0.90;0.80;;;3.40;99.90;;;;;;5068280;28;21045;-74
2023/01/16 16:34:32;;;;;;;0.80;0.68;;;3.30;99.90;;;;;;5067123;28;20204;-75
2023/01/16 16:37:00;;;;;;;3.53;0.95;;;3.30;99.90;;;;;;5066943;28;20228;-75
2023/01/16 16:40:12;;;;;;;1.30;1.00;;;3.30;99.90;;;;;;5067061;28;20211;-75
2023/01/16 16:42:44;;;;;;;1.23;1.13;;;3.40;99.90;;;;;;5025480;28;20281;-74
2023/01/16 16:45:33;;;;;;;2.78;1.10;;;3.40;99.90;;;;;;5025737;28;20216;-75
2023/01/16 16:48:19;;;;;;;1.10;1.00;;;3.50;99.90;;;;;;5055948;28;20245;-73